createdAt,value
2023-08-26T00:02:16.436Z,77.91
2023-08-26T00:04:44.563Z,77.50
2023-08-26T00:07:12.672Z,77.71
2023-08-26T00:09:40.709Z,77.79
2023-08-26T00:12:09.372Z,77.92
2023-08-26T00:14:37.488Z,77.77
2023-08-26T00:17:06.637Z,77.48
2023-08-26T00:19:36.412Z,77.78
2023-08-26T00:22:06.400Z,77.67
2023-08-26T00:24:35.308Z,77.68
2023-08-26T00:27:03.478Z,77.99
2023-08-26T00:29:31.693Z,77.75
2023-08-26T00:31:59.969Z,77.77
2023-08-26T00:34:28.066Z,77.83
2023-08-26T00:36:57.630Z,78.11
2023-08-26T00:39:25.810Z,77.73
2023-08-26T00:41:53.951Z,77.86
2023-08-26T00:44:23.702Z,77.98
2023-08-26T00:46:51.891Z,77.88
2023-08-26T00:49:20.557Z,77.89
2023-08-26T00:51:49.423Z,77.68
2023-08-26T00:54:19.417Z,77.72
2023-08-26T00:56:48.163Z,77.90
2023-08-26T00:59:16.381Z,77.69
2023-08-26T01:01:45.679Z,77.85
2023-08-26T01:04:14.049Z,78.02
2023-08-26T01:06:42.181Z,77.71
2023-08-26T01:09:10.455Z,78.02
2023-08-26T01:11:44.343Z,78.04
2023-08-26T01:14:19.290Z,77.80
2023-08-26T01:16:47.704Z,78.06
2023-08-26T01:19:23.690Z,77.82
2023-08-26T01:21:57.298Z,77.64
2023-08-26T01:24:28.135Z,77.75
2023-08-26T01:26:56.269Z,77.74
2023-08-26T01:29:24.455Z,77.77
2023-08-26T01:31:59.698Z,77.90
2023-08-26T01:34:32.847Z,77.70
2023-08-26T01:37:02.180Z,77.64
2023-08-26T01:39:32.773Z,77.85
2023-08-26T01:42:03.584Z,77.90
2023-08-26T01:44:33.268Z,77.85
2023-08-26T01:47:01.500Z,77.83
2023-08-26T01:49:29.693Z,78.22
2023-08-26T01:51:57.849Z,77.94
2023-08-26T01:54:26.084Z,77.96
2023-08-26T01:56:55.768Z,77.61
2023-08-26T01:59:24.011Z,78.16
2023-08-26T02:01:52.174Z,77.92
2023-08-26T02:04:20.379Z,78.24
2023-08-26T02:06:48.570Z,78.17
2023-08-26T02:09:17.166Z,78.31
2023-08-26T02:11:45.290Z,78.34
2023-08-26T02:14:14.891Z,77.91
2023-08-26T02:16:42.967Z,78.13
2023-08-26T02:19:11.186Z,77.69
2023-08-26T02:21:39.401Z,77.56
2023-08-26T02:24:09.263Z,77.66
2023-08-26T02:26:38.942Z,78.03
2023-08-26T02:29:07.098Z,77.61
2023-08-26T02:31:37.345Z,78.11
2023-08-26T02:34:05.610Z,77.71
2023-08-26T02:36:33.746Z,77.90
2023-08-26T02:39:01.876Z,77.56
2023-08-26T02:41:30.006Z,77.61
2023-08-26T02:43:58.074Z,78.03
2023-08-26T02:46:26.267Z,77.90
2023-08-26T02:48:57.431Z,78.00
2023-08-26T02:51:25.761Z,77.90
2023-08-26T02:53:53.921Z,77.80
2023-08-26T02:56:22.090Z,77.78
2023-08-26T02:58:50.429Z,77.73
2023-08-26T03:01:18.681Z,77.98
2023-08-26T03:03:47.089Z,77.91
2023-08-26T03:06:16.641Z,77.52
2023-08-26T03:08:45.170Z,78.04
2023-08-26T03:11:14.654Z,77.96
2023-08-26T03:13:42.730Z,78.10
2023-08-26T03:16:12.689Z,78.20
2023-08-26T03:18:41.440Z,78.42
2023-08-26T03:21:11.431Z,78.10
2023-08-26T03:23:41.028Z,78.36
2023-08-26T03:26:09.460Z,78.11
2023-08-26T03:28:37.618Z,78.14
2023-08-26T03:31:07.255Z,78.20
2023-08-26T03:33:36.271Z,78.11
2023-08-26T03:36:05.998Z,78.23
2023-08-26T03:38:34.521Z,78.54
2023-08-26T03:41:05.921Z,78.36
2023-08-26T03:43:34.721Z,78.39
2023-08-26T03:46:04.779Z,78.42
2023-08-26T03:48:33.097Z,78.15
2023-08-26T03:51:01.252Z,78.13
2023-08-26T03:53:29.576Z,78.13
2023-08-26T03:55:57.683Z,78.19
2023-08-26T03:58:28.119Z,78.29
2023-08-26T04:01:02.579Z,78.31
2023-08-26T04:03:31.199Z,78.47
2023-08-26T04:06:01.246Z,78.09
2023-08-26T04:08:29.483Z,78.34
2023-08-26T04:10:58.266Z,78.52
2023-08-26T04:13:29.107Z,78.38
2023-08-26T04:15:58.507Z,78.56
2023-08-26T04:18:27.164Z,78.37
2023-08-26T04:20:55.342Z,78.50
2023-08-26T04:23:23.484Z,78.46
2023-08-26T04:25:53.001Z,78.17
2023-08-26T04:28:21.102Z,78.13
2023-08-26T04:30:50.628Z,78.20
2023-08-26T04:33:21.629Z,78.15
2023-08-26T04:35:49.857Z,78.16
2023-08-26T04:38:17.983Z,78.24
2023-08-26T04:40:46.424Z,78.21
2023-08-26T04:43:14.531Z,78.15
2023-08-26T04:45:42.769Z,78.05
2023-08-26T04:48:12.344Z,78.19
2023-08-26T04:50:42.662Z,78.28
2023-08-26T04:53:10.870Z,78.50
2023-08-26T04:55:39.019Z,78.36
2023-08-26T04:58:10.334Z,78.37
2023-08-26T05:00:42.793Z,78.26
2023-08-26T05:03:12.632Z,78.24
2023-08-26T05:05:42.803Z,78.32
2023-08-26T05:08:11.302Z,78.31
2023-08-26T05:10:39.867Z,78.01
2023-08-26T05:13:08.373Z,78.23
2023-08-26T05:15:36.497Z,77.94
2023-08-26T05:18:04.790Z,78.18
2023-08-26T05:20:34.664Z,77.93
2023-08-26T05:23:02.968Z,78.14
2023-08-26T05:25:32.352Z,78.23
2023-08-26T05:28:00.651Z,77.94
2023-08-26T05:30:28.922Z,78.09
2023-08-26T05:32:57.133Z,78.15
2023-08-26T05:35:25.342Z,78.03
2023-08-26T05:37:55.359Z,78.22
2023-08-26T05:40:28.331Z,78.16
2023-08-26T05:42:57.647Z,78.30
2023-08-26T05:45:26.402Z,77.93
2023-08-26T05:47:55.746Z,77.79
2023-08-26T05:50:24.460Z,77.86
2023-08-26T05:52:53.168Z,77.90
2023-08-26T05:55:23.010Z,78.24
2023-08-26T05:57:51.269Z,78.28
2023-08-26T06:00:19.766Z,77.99
2023-08-26T06:02:47.914Z,78.19
2023-08-26T06:05:16.405Z,78.19
2023-08-26T06:07:44.921Z,77.93
2023-08-26T06:10:14.513Z,77.97
2023-08-26T06:12:44.099Z,78.28
2023-08-26T06:15:12.465Z,78.07
2023-08-26T06:17:42.647Z,77.68
2023-08-26T06:20:14.589Z,78.08
2023-08-26T06:22:46.521Z,78.13
2023-08-26T06:25:15.016Z,78.03
2023-08-26T06:27:44.651Z,78.29
2023-08-26T06:30:13.307Z,78.45
2023-08-26T06:32:41.585Z,77.89
2023-08-26T06:35:10.424Z,78.01
2023-08-26T06:37:38.651Z,78.20
2023-08-26T06:40:07.491Z,78.20
2023-08-26T06:42:46.598Z,78.02
2023-08-26T06:45:17.309Z,78.04
2023-08-26T06:47:45.532Z,78.46
2023-08-26T06:50:13.815Z,78.30
2023-08-26T06:52:43.217Z,78.33
2023-08-26T06:55:11.612Z,78.20
2023-08-26T06:57:40.334Z,78.24
2023-08-26T07:00:10.393Z,78.36
2023-08-26T07:02:39.966Z,78.40
2023-08-26T07:05:09.029Z,78.46
2023-08-26T07:07:38.957Z,78.37
2023-08-26T07:10:08.559Z,78.29
2023-08-26T07:12:37.339Z,78.40
2023-08-26T07:15:06.826Z,78.53
2023-08-26T07:17:37.288Z,78.32
2023-08-26T07:20:09.786Z,78.48
2023-08-26T07:22:41.893Z,78.49
2023-08-26T07:25:14.309Z,78.30
2023-08-26T07:27:55.704Z,78.57
2023-08-26T07:30:27.088Z,78.13
2023-08-26T07:32:56.123Z,78.41
2023-08-26T07:35:26.254Z,78.58
2023-08-26T07:37:56.302Z,78.46
2023-08-26T07:40:25.429Z,78.29
2023-08-26T07:42:54.060Z,78.35
2023-08-26T07:45:22.237Z,78.58
2023-08-26T07:50:21.629Z,78.61
2023-08-26T07:52:51.167Z,78.50
2023-08-26T07:55:19.500Z,78.25
2023-08-26T07:57:47.683Z,78.49
2023-08-26T08:00:16.372Z,78.02
2023-08-26T08:02:44.565Z,78.01
2023-08-26T08:05:12.915Z,78.37
2023-08-26T08:07:41.498Z,78.36
2023-08-26T08:10:14.694Z,78.39
2023-08-26T08:12:43.217Z,78.31
2023-08-26T08:15:11.894Z,78.44
2023-08-26T08:17:40.317Z,78.00
2023-08-26T08:20:09.370Z,78.32
2023-08-26T08:22:40.174Z,77.92
2023-08-26T08:25:11.981Z,78.00
2023-08-26T08:27:42.150Z,78.16
2023-08-26T08:30:10.766Z,78.11
2023-08-26T08:32:39.179Z,78.25
2023-08-26T08:35:08.648Z,77.99
2023-08-26T08:37:37.387Z,78.20
2023-08-26T08:40:06.754Z,78.48
2023-08-26T08:42:36.754Z,78.29
2023-08-26T08:45:06.048Z,78.32
2023-08-26T08:47:34.410Z,78.23
2023-08-26T08:50:04.295Z,78.68
2023-08-26T08:52:34.339Z,78.54
2023-08-26T08:55:02.572Z,78.50
2023-08-26T08:57:33.928Z,78.74
2023-08-26T09:00:07.737Z,78.77
2023-08-26T09:02:41.058Z,78.87
2023-08-26T09:05:10.682Z,79.08
2023-08-26T09:07:41.036Z,79.11
2023-08-26T09:10:12.083Z,78.52
2023-08-26T09:12:42.221Z,79.06
2023-08-26T09:15:12.342Z,79.40
2023-08-26T09:17:46.285Z,79.07
2023-08-26T09:20:14.703Z,79.39
2023-08-26T09:22:43.281Z,79.40
2023-08-26T09:25:11.453Z,79.74
2023-08-26T09:27:44.103Z,79.88
2023-08-26T09:30:26.511Z,79.82
2023-08-26T09:32:56.604Z,79.40
2023-08-26T09:38:00.341Z,79.46
2023-08-26T09:40:28.716Z,79.17
2023-08-26T09:42:57.485Z,79.43
2023-08-26T09:45:27.654Z,79.40
2023-08-26T09:47:57.535Z,79.22
2023-08-26T09:50:32.880Z,79.09
2023-08-26T09:53:01.526Z,79.11
2023-08-26T09:55:30.876Z,79.47
2023-08-26T09:57:59.568Z,79.04
2023-08-26T10:00:30.602Z,79.10
2023-08-26T10:03:04.543Z,79.50
2023-08-26T10:05:37.740Z,79.27
2023-08-26T10:08:10.945Z,79.48
2023-08-26T10:10:49.181Z,79.18
2023-08-26T10:13:22.308Z,79.38
2023-08-26T10:15:55.406Z,79.61
2023-08-26T10:18:34.480Z,79.26
2023-08-26T10:21:05.280Z,79.61
2023-08-26T10:23:34.884Z,79.24
2023-08-26T10:26:04.204Z,79.23
2023-08-26T10:28:35.696Z,79.40
2023-08-26T10:31:09.478Z,79.57
2023-08-26T10:34:02.891Z,79.41
2023-08-26T10:36:31.242Z,79.32
2023-08-26T10:39:00.725Z,78.93
2023-08-26T10:41:29.460Z,78.88
2023-08-26T10:43:59.967Z,79.01
2023-08-26T10:46:36.803Z,79.04
2023-08-26T10:49:05.608Z,78.72
2023-08-26T10:51:37.166Z,78.81
2023-08-26T10:54:06.262Z,78.86
2023-08-26T10:56:35.589Z,78.88
2023-08-26T10:59:05.143Z,78.72
2023-08-26T11:01:37.980Z,78.91
2023-08-26T11:04:06.908Z,78.54
2023-08-26T11:06:38.787Z,78.38
2023-08-26T11:09:07.066Z,78.41
2023-08-26T11:11:35.295Z,78.62
2023-08-26T11:14:03.872Z,78.66
2023-08-26T11:16:32.089Z,78.66
2023-08-26T11:19:02.343Z,79.00
2023-08-26T11:21:30.459Z,78.57
2023-08-26T11:24:00.525Z,78.74
2023-08-26T11:26:29.966Z,78.91
2023-08-26T11:29:01.947Z,78.94
2023-08-26T11:31:31.168Z,78.92
2023-08-26T11:33:59.402Z,78.51
2023-08-26T11:36:29.393Z,78.86
2023-08-26T11:38:59.013Z,78.78
2023-08-26T11:41:28.687Z,78.65
2023-08-26T11:43:56.810Z,78.77
2023-08-26T11:46:25.382Z,78.81
2023-08-26T11:48:53.518Z,78.77
2023-08-26T11:51:21.907Z,79.07
2023-08-26T11:53:52.169Z,79.05
2023-08-26T11:56:20.962Z,78.90
2023-08-26T11:58:49.007Z,78.78
2023-08-26T12:01:17.184Z,78.91
2023-08-26T12:03:46.216Z,78.67
2023-08-26T12:06:16.583Z,78.82
2023-08-26T12:08:45.947Z,78.71
2023-08-26T12:11:17.788Z,78.77
2023-08-26T12:13:46.276Z,78.56
2023-08-26T12:16:14.547Z,78.35
2023-08-26T12:18:43.543Z,78.47
2023-08-26T12:21:11.828Z,78.28
2023-08-26T12:23:40.341Z,78.38
2023-08-26T12:26:18.565Z,78.42
2023-08-26T12:28:46.659Z,78.70
2023-08-26T12:31:14.899Z,78.54
2023-08-26T12:33:58.066Z,78.27
2023-08-26T12:36:28.374Z,78.41
2023-08-26T12:38:56.657Z,78.29
2023-08-26T12:41:26.275Z,78.18
2023-08-26T12:43:56.372Z,78.56
2023-08-26T12:46:24.693Z,78.37
2023-08-26T12:48:55.769Z,78.45
2023-08-26T12:51:25.014Z,78.36
2023-08-26T12:53:53.555Z,78.66
2023-08-26T12:56:22.162Z,78.33
2023-08-26T12:58:52.892Z,78.36
2023-08-26T13:01:21.187Z,78.38
2023-08-26T13:03:49.311Z,78.69
2023-08-26T13:06:17.726Z,78.51
2023-08-26T13:08:45.867Z,78.77
2023-08-26T13:11:13.967Z,78.41
2023-08-26T13:13:42.092Z,78.41
2023-08-26T13:16:11.903Z,78.67
2023-08-26T13:18:44.228Z,78.47
2023-08-26T13:21:12.716Z,78.63
2023-08-26T13:23:40.804Z,78.80
2023-08-26T13:26:08.837Z,78.44
2023-08-26T13:28:36.944Z,78.40
2023-08-26T13:31:05.045Z,78.73
2023-08-26T13:33:34.567Z,78.41
2023-08-26T13:36:02.779Z,78.32
2023-08-26T13:38:30.875Z,78.79
2023-08-26T13:40:59.061Z,78.82
2023-08-26T13:43:27.214Z,78.78
2023-08-26T13:45:55.274Z,78.60
2023-08-26T13:48:23.337Z,78.62
2023-08-26T13:50:52.914Z,78.54
2023-08-26T13:53:20.962Z,78.47
2023-08-26T13:55:56.227Z,78.41
2023-08-26T13:58:24.397Z,78.79
2023-08-26T14:00:52.685Z,78.63
2023-08-26T14:03:20.826Z,78.74
2023-08-26T14:05:51.950Z,78.53
2023-08-26T14:08:21.405Z,78.83
2023-08-26T14:10:49.438Z,78.54
2023-08-26T14:13:17.609Z,78.65
2023-08-26T14:15:47.537Z,78.83
2023-08-26T14:18:15.675Z,78.75
2023-08-26T14:20:45.162Z,78.98
2023-08-26T14:23:13.385Z,78.68
2023-08-26T14:25:43.952Z,78.75
2023-08-26T14:28:12.121Z,79.07
2023-08-26T14:30:40.232Z,78.87
2023-08-26T14:33:08.426Z,78.80
2023-08-26T14:35:36.588Z,78.59
2023-08-26T14:38:05.082Z,78.87
2023-08-26T14:40:33.158Z,79.06
2023-08-26T14:43:02.602Z,78.76
2023-08-26T14:45:30.693Z,78.74
2023-08-26T14:47:59.089Z,78.92
2023-08-26T14:50:27.417Z,78.55
2023-08-26T14:52:56.080Z,78.60
2023-08-26T14:55:25.180Z,78.80
2023-08-26T14:57:53.273Z,78.54
2023-08-26T15:00:24.326Z,78.60
2023-08-26T15:02:52.715Z,78.59
2023-08-26T15:05:20.807Z,78.83
2023-08-26T15:07:48.918Z,78.61
2023-08-26T15:10:17.308Z,78.61
2023-08-26T15:12:46.280Z,78.90
2023-08-26T15:15:14.866Z,78.54
2023-08-26T15:17:44.934Z,78.69
2023-08-26T15:20:13.701Z,78.54
2023-08-26T15:22:41.788Z,78.61
2023-08-26T15:25:10.578Z,78.60
2023-08-26T15:27:38.708Z,78.85
2023-08-26T15:30:09.034Z,78.89
2023-08-26T15:32:37.317Z,78.53
2023-08-26T15:35:07.294Z,79.05
2023-08-26T15:37:35.482Z,78.73
2023-08-26T15:40:06.584Z,78.84
2023-08-26T15:42:35.099Z,78.51
2023-08-26T15:45:03.458Z,78.95
2023-08-26T15:47:31.534Z,78.63
2023-08-26T15:49:59.598Z,79.02
2023-08-26T15:52:29.093Z,78.93
2023-08-26T15:54:57.343Z,78.73
2023-08-26T15:57:25.484Z,78.82
2023-08-26T15:59:53.525Z,78.84
2023-08-26T16:02:21.634Z,78.94
2023-08-26T16:04:49.734Z,78.69
2023-08-26T16:07:17.835Z,78.84
2023-08-26T16:09:47.364Z,78.78
2023-08-26T16:12:17.698Z,78.64
2023-08-26T16:14:46.122Z,78.63
2023-08-26T16:17:14.438Z,78.63
2023-08-26T16:19:42.556Z,78.45
2023-08-26T16:22:10.641Z,78.55
2023-08-26T16:24:38.753Z,78.48
2023-08-26T16:27:10.288Z,78.78
2023-08-26T16:29:38.528Z,78.45
2023-08-26T16:32:06.811Z,78.43
2023-08-26T16:34:38.523Z,78.70
2023-08-26T16:37:06.707Z,78.76
2023-08-26T16:39:35.031Z,78.54
2023-08-26T16:42:03.117Z,78.62
2023-08-26T16:44:32.568Z,78.61
2023-08-26T16:47:00.673Z,78.60
2023-08-26T16:49:28.853Z,78.70
2023-08-26T16:51:56.945Z,78.23
2023-08-26T16:54:25.077Z,78.54
2023-08-26T16:56:53.195Z,78.63
2023-08-26T16:59:21.270Z,78.65
2023-08-26T17:01:51.020Z,78.23
2023-08-26T17:04:19.276Z,78.55
2023-08-26T17:06:47.640Z,78.26
2023-08-26T17:09:16.232Z,78.60
2023-08-26T17:11:44.294Z,78.41
2023-08-26T17:14:12.418Z,78.36
2023-08-26T17:16:40.642Z,78.43
2023-08-26T17:19:11.305Z,78.36
2023-08-26T17:21:39.432Z,78.39
2023-08-26T17:24:07.938Z,78.42
2023-08-26T17:26:36.057Z,78.45
2023-08-26T17:29:04.325Z,78.46
2023-08-26T17:31:32.674Z,78.30
2023-08-26T17:34:00.935Z,78.44
2023-08-26T17:36:32.280Z,78.78
2023-08-26T17:39:00.388Z,78.31
2023-08-26T17:41:28.587Z,78.50
2023-08-26T17:43:56.638Z,78.69
2023-08-26T17:46:24.739Z,78.48
2023-08-26T17:48:52.815Z,78.66
2023-08-26T17:51:20.935Z,78.71
2023-08-26T17:53:50.456Z,78.54
2023-08-26T17:56:21.216Z,78.66
2023-08-26T17:58:49.354Z,78.27
2023-08-26T18:01:17.531Z,78.60
2023-08-26T18:03:45.663Z,78.71
2023-08-26T18:06:13.809Z,78.79
2023-08-26T18:08:41.915Z,78.74
2023-08-26T18:11:11.518Z,78.30
2023-08-26T18:13:39.635Z,78.71
2023-08-26T18:16:07.897Z,78.58
2023-08-26T18:18:36.024Z,78.29
2023-08-26T18:21:04.288Z,78.45
2023-08-26T18:23:32.401Z,78.44
2023-08-26T18:26:00.608Z,78.32
2023-08-26T18:28:31.670Z,78.52
2023-08-26T18:30:59.882Z,78.45
2023-08-26T18:33:28.053Z,78.38
2023-08-26T18:35:56.124Z,78.19
2023-08-26T18:38:24.256Z,78.31
2023-08-26T18:40:58.725Z,78.50
2023-08-26T18:43:27.331Z,78.43
2023-08-26T18:45:57.272Z,78.44
2023-08-26T18:48:25.427Z,78.50
2023-08-26T18:51:00.812Z,78.40
2023-08-26T18:53:29.743Z,78.42
2023-08-26T18:55:58.000Z,78.30
2023-08-26T18:58:26.806Z,78.39
2023-08-26T19:00:57.959Z,78.42
2023-08-26T19:03:26.289Z,78.08
2023-08-26T19:05:54.573Z,78.11
2023-08-26T19:08:22.705Z,78.24
2023-08-26T19:10:57.064Z,78.38
2023-08-26T19:13:25.608Z,78.53
2023-08-26T19:15:54.820Z,78.07
2023-08-26T19:18:24.320Z,78.38
2023-08-26T19:20:52.809Z,78.47
2023-08-26T19:23:21.075Z,78.48
2023-08-26T19:25:50.880Z,78.20
2023-08-26T19:28:19.349Z,78.24
2023-08-26T19:30:48.210Z,78.21
2023-08-26T19:33:16.421Z,78.11
2023-08-26T19:35:46.427Z,78.16
2023-08-26T19:38:14.564Z,78.06
2023-08-26T19:40:42.744Z,78.38
2023-08-26T19:43:10.820Z,78.46
2023-08-26T19:45:41.375Z,78.18
2023-08-26T19:48:11.238Z,78.36
2023-08-26T19:50:40.841Z,78.15
2023-08-26T19:53:10.336Z,78.22
2023-08-26T19:55:38.594Z,78.22
2023-08-26T19:58:06.875Z,78.20
2023-08-26T20:00:35.174Z,78.11
2023-08-26T20:03:03.340Z,78.40
2023-08-26T20:05:31.532Z,78.36
2023-08-26T20:08:00.130Z,78.19
2023-08-26T20:10:30.494Z,78.48
2023-08-26T20:12:58.631Z,78.33
2023-08-26T20:15:26.954Z,78.06
2023-08-26T20:17:55.057Z,78.32
2023-08-26T20:20:23.188Z,78.13
2023-08-26T20:22:51.318Z,78.07
2023-08-26T20:25:19.569Z,78.30
2023-08-26T20:27:49.068Z,78.31
2023-08-26T20:30:17.387Z,78.26
2023-08-26T20:32:45.633Z,78.11
2023-08-26T20:35:13.741Z,77.94
2023-08-26T20:37:41.831Z,78.18
2023-08-26T20:40:11.401Z,78.33
2023-08-26T20:42:42.154Z,78.17
2023-08-26T20:45:12.496Z,77.85
2023-08-26T20:47:40.596Z,78.28
2023-08-26T20:50:13.285Z,78.26
2023-08-26T20:52:41.992Z,78.16
2023-08-26T20:55:10.590Z,78.12
2023-08-26T20:57:38.674Z,78.07
2023-08-26T21:00:08.029Z,77.81
2023-08-26T21:02:37.537Z,78.15
2023-08-26T21:05:06.358Z,77.63
2023-08-26T21:07:34.536Z,77.91
2023-08-26T21:10:02.699Z,78.01
2023-08-26T21:12:31.148Z,77.86
2023-08-26T21:14:59.353Z,77.73
2023-08-26T21:17:27.550Z,77.98
2023-08-26T21:19:57.535Z,77.92
2023-08-26T21:22:25.590Z,78.00
2023-08-26T21:24:53.734Z,77.96
2023-08-26T21:27:21.867Z,77.99
2023-08-26T21:29:49.988Z,77.64
2023-08-26T21:32:18.080Z,77.87
2023-08-26T21:34:46.226Z,77.78
2023-08-26T21:37:15.790Z,77.65
2023-08-26T21:39:43.887Z,77.54
2023-08-26T21:42:11.993Z,77.76
2023-08-26T21:44:40.125Z,77.91
2023-08-26T21:47:08.178Z,77.87
2023-08-26T21:49:36.294Z,77.65
2023-08-26T21:52:04.487Z,77.50
2023-08-26T21:54:34.044Z,77.52
2023-08-26T21:57:02.371Z,77.48
2023-08-26T21:59:32.027Z,77.43
2023-08-26T22:02:00.138Z,77.59
2023-08-26T22:04:29.635Z,77.30
2023-08-26T22:06:57.776Z,77.62
2023-08-26T22:09:25.935Z,77.42
2023-08-26T22:11:55.511Z,77.52
2023-08-26T22:14:23.666Z,77.61
2023-08-26T22:16:52.526Z,77.44
2023-08-26T22:19:20.629Z,77.27
2023-08-26T22:21:48.783Z,77.53
2023-08-26T22:24:16.839Z,77.42
2023-08-26T22:26:45.124Z,77.63
2023-08-26T22:29:14.706Z,77.33
2023-08-26T22:31:42.820Z,77.50
2023-08-26T22:34:10.962Z,77.66
2023-08-26T22:36:41.345Z,77.30
2023-08-26T22:39:19.454Z,77.35
2023-08-26T22:41:53.000Z,77.35
2023-08-26T22:44:22.930Z,77.59
2023-08-26T22:46:51.029Z,77.40
2023-08-26T22:49:19.283Z,77.43
2023-08-26T22:51:47.598Z,77.50
2023-08-26T22:54:15.656Z,77.40
2023-08-26T22:56:43.732Z,77.09
2023-08-26T22:59:11.826Z,77.27
2023-08-26T23:01:41.344Z,77.07
2023-08-26T23:04:09.516Z,77.09
2023-08-26T23:06:37.623Z,77.28
2023-08-26T23:09:07.737Z,77.13
2023-08-26T23:11:35.838Z,77.16
2023-08-26T23:14:03.948Z,77.06
2023-08-26T23:16:32.069Z,76.75
2023-08-26T23:19:01.690Z,76.87
2023-08-26T23:21:29.768Z,76.81
2023-08-26T23:23:57.931Z,76.95
2023-08-26T23:26:27.217Z,76.99
2023-08-26T23:28:55.312Z,76.92
2023-08-26T23:31:23.474Z,76.87
2023-08-26T23:33:52.322Z,77.06
2023-08-26T23:36:22.232Z,76.75
2023-08-26T23:38:50.461Z,76.80
2023-08-26T23:41:18.612Z,76.88
2023-08-26T23:43:46.677Z,77.05
2023-08-26T23:46:14.967Z,76.90
2023-08-26T23:48:43.083Z,76.78
2023-08-26T23:51:11.168Z,76.88
2023-08-26T23:53:40.724Z,77.02
2023-08-26T23:56:08.804Z,76.85
2023-08-26T23:58:36.930Z,76.66
